Time;durP1;ratioP1;P1;durP2;ratioP2;P2;SDS_P1;SDS_P2;PMS_P1;PMS_P2;Temp;Humidity;BMP_temperature;BMP_pressure;BME280_temperature;BME280_humidity;BME280_pressure;Samples;Min_cycle;Max_cycle;Signal;HPM_P1;HPM_P2
2022/05/20 00:00:27;;;;;;;33.23;11.70;;;21.50;97.70;;;;;;5056133;28;20536;-75
2022/05/20 00:02:54;;;;;;;15.87;11.60;;;21.50;97.60;;;;;;5055433;28;20475;-75
2022/05/20 00:05:20;;;;;;;15.90;11.17;;;21.50;97.50;;;;;;5055642;28;20491;-74
2022/05/20 00:07:47;;;;;;;23.60;11.70;;;21.50;97.40;;;;;;5055302;28;20486;-76
2022/05/20 00:10:16;;;;;;;13.07;9.87;;;21.40;97.30;;;;;;5054794;28;20482;-73
2022/05/20 00:12:43;;;;;;;14.33;10.20;;;21.40;97.30;;;;;;5060459;28;20482;-76
2022/05/20 00:15:17;;;;;;;20.67;10.53;;;21.30;97.20;;;;;;5058122;28;21025;-75
2022/05/20 00:17:44;;;;;;;29.97;11.90;;;21.40;97.30;;;;;;5057052;28;20482;-76
2022/05/20 00:20:12;;;;;;;23.07;10.53;;;21.30;97.40;;;;;;5058261;28;20514;-74
2022/05/20 00:22:39;;;;;;;18.53;10.73;;;21.30;97.40;;;;;;5057693;28;20486;-74
2022/05/20 00:27:52;;;;;;;20.57;10.70;;;21.20;97.30;;;;;;5047240;28;20477;-74
2022/05/20 00:30:21;;;;;;;10.27;9.17;;;21.20;97.30;;;;;;5059983;28;20500;-76
2022/05/20 00:32:47;;;;;;;15.70;9.50;;;21.20;97.20;;;;;;5059115;28;20693;-74
2022/05/20 00:35:14;;;;;;;18.77;9.07;;;21.20;97.30;;;;;;5056262;28;21174;-73
2022/05/20 00:37:41;;;;;;;25.93;9.97;;;21.20;97.20;;;;;;5061239;28;20964;-74
2022/05/20 00:40:11;;;;;;;17.10;9.53;;;21.10;97.20;;;;;;5044656;28;20475;-74
2022/05/20 00:42:37;;;;;;;11.70;9.57;;;21.10;97.10;;;;;;5058052;28;21055;-74
2022/05/20 00:45:06;;;;;;;11.13;9.80;;;21.00;97.30;;;;;;5056567;28;20482;-74
2022/05/20 00:47:35;;;;;;;20.80;11.00;;;21.00;97.70;;;;;;5059308;28;20494;-76
2022/05/20 00:50:05;;;;;;;14.00;10.00;;;21.00;98.00;;;;;;5059647;28;20544;-76
2022/05/20 00:52:36;;;;;;;12.93;10.03;;;20.90;98.10;;;;;;5058987;28;20512;-73
2022/05/20 00:55:09;;;;;;;33.17;10.93;;;20.90;98.50;;;;;;5059586;28;20493;-75
2022/05/20 00:57:40;;;;;;;23.60;10.37;;;20.90;98.50;;;;;;5059787;28;20491;-75
2022/05/20 01:00:09;;;;;;;20.00;11.80;;;;;;;;;;5057807;28;20487;-73
2022/05/20 01:02:39;;;;;;;11.47;10.27;;;20.90;98.40;;;;;;5059998;28;21282;-76
2022/05/20 01:05:11;;;;;;;22.20;10.33;;;20.90;98.30;;;;;;5057998;28;20498;-73
2022/05/20 01:07:40;;;;;;;11.87;10.50;;;20.90;98.00;;;;;;5061226;28;21259;-76
2022/05/20 01:10:08;;;;;;;16.40;11.00;;;20.90;97.90;;;;;;5057686;28;21015;-75
2022/05/20 01:12:35;;;;;;;13.43;11.00;;;20.90;97.80;;;;;;5063909;28;20495;-73
2022/05/20 01:15:04;;;;;;;27.40;12.57;;;20.90;97.60;;;;;;5062501;28;20867;-73
2022/05/20 01:17:31;;;;;;;14.97;12.87;;;20.90;97.50;;;;;;5062477;28;20925;-76
2022/05/20 01:20:00;;;;;;;10.80;9.50;;;20.90;97.70;;;;;;5063201;28;21017;-76
2022/05/20 01:22:32;;;;;;;18.53;9.93;;;20.90;97.70;;;;;;5061478;28;20955;-73
2022/05/20 01:25:01;;;;;;;15.20;9.30;;;20.80;97.40;;;;;;5062276;28;20521;-73
2022/05/20 01:27:28;;;;;;;10.50;9.40;;;22.10;98.10;;;;;;5060501;28;20482;-75
2022/05/20 01:29:54;;;;;;;14.57;9.50;;;20.80;97.60;;;;;;5059826;28;20482;-73
2022/05/20 01:32:21;;;;;;;11.43;9.37;;;20.70;97.70;;;;;;5063520;28;20475;-75
2022/05/20 01:34:48;;;;;;;14.90;10.93;;;20.70;97.60;;;;;;5062795;28;20478;-74
2022/05/20 01:37:15;;;;;;;21.23;9.43;;;20.70;97.60;;;;;;5062171;28;20929;-73
2022/05/20 01:39:42;;;;;;;16.23;10.23;;;20.70;97.60;;;;;;5060343;28;20484;-73
2022/05/20 01:42:16;;;;;;;11.70;10.33;;;20.70;97.60;;;;;;5060302;28;20486;-75
2022/05/20 01:44:50;;;;;;;25.13;10.97;;;20.60;97.70;;;;;;5050574;28;20845;-73
2022/05/20 01:47:24;;;;;;;24.63;10.50;;;20.60;97.80;;;;;;5059278;28;20482;-73
2022/05/20 01:49:54;;;;;;;15.60;10.27;;;20.60;97.50;;;;;;5051569;28;20478;-73
2022/05/20 01:52:36;;;;;;;42.07;10.70;;;20.60;97.70;;;;;;5062832;28;21276;-72
2022/05/20 01:55:09;;;;;;;34.70;10.27;;;20.60;97.80;;;;;;5059097;28;20478;-73
2022/05/20 01:57:40;;;;;;;31.97;10.17;;;20.50;97.70;;;;;;5063369;28;20479;-75
2022/05/20 02:00:11;;;;;;;67.23;11.33;;;20.50;97.70;;;;;;5060909;28;20490;-73
2022/05/20 02:02:44;;;;;;;26.27;11.10;;;20.50;97.80;;;;;;5063870;28;20802;-75
2022/05/20 02:05:15;;;;;;;62.37;10.80;;;;;;;;;;5060202;28;20478;-74
2022/05/20 02:07:44;;;;;;;42.83;9.67;;;20.40;98.00;;;;;;5063179;28;20470;-74
2022/05/20 02:10:17;;;;;;;42.90;10.60;;;20.30;98.00;;;;;;5060917;28;22180;-76
2022/05/20 02:12:49;;;;;;;17.23;9.37;;;20.30;98.10;;;;;;5063602;28;20485;-73
2022/05/20 02:15:23;;;;;;;47.97;9.33;;;20.30;98.20;;;;;;5056769;28;20482;-75
2022/05/20 02:17:54;;;;;;;36.73;10.53;;;20.20;98.30;;;;;;5050117;28;20467;-75
2022/05/20 02:20:26;;;;;;;35.90;9.10;;;20.10;98.40;;;;;;5062456;28;20475;-76
2022/05/20 02:22:57;;;;;;;71.70;11.73;;;20.10;98.70;;;;;;5052425;28;20478;-76
2022/05/20 02:25:28;;;;;;;32.83;9.90;;;20.10;98.70;;;;;;5060463;28;20509;-73
2022/05/20 02:27:59;;;;;;;29.37;10.50;;;20.10;98.90;;;;;;5060571;28;20828;-73
2022/05/20 02:30:31;;;;;;;19.50;9.70;;;20.10;98.90;;;;;;5061833;28;21193;-73
2022/05/20 02:33:04;;;;;;;24.43;9.60;;;20.00;98.80;;;;;;5061449;28;20478;-73
2022/05/20 02:35:31;;;;;;;15.87;9.17;;;20.00;98.70;;;;;;5058944;28;20488;-74
2022/05/20 02:38:05;;;;;;;16.10;9.30;;;20.00;98.70;;;;;;5061641;28;20487;-76
2022/05/20 02:40:32;;;;;;;12.10;9.13;;;20.00;98.70;;;;;;5059464;28;20903;-73
2022/05/20 02:43:00;;;;;;;11.30;10.10;;;20.00;98.80;;;;;;5058418;28;21369;-75
2022/05/20 02:45:27;;;;;;;23.13;9.93;;;20.00;98.70;;;;;;5055834;28;20498;-75
2022/05/20 02:47:54;;;;;;;12.53;9.70;;;20.10;98.70;;;;;;5060386;28;20493;-73
2022/05/20 02:50:20;;;;;;;11.30;10.10;;;20.10;98.70;;;;;;5060243;28;20489;-73
2022/05/20 02:52:47;;;;;;;16.40;9.97;;;20.10;98.70;;;;;;5060370;28;20951;-75
2022/05/20 02:55:14;;;;;;;14.03;10.67;;;20.10;98.60;;;;;;5060103;28;20490;-74
2022/05/20 02:57:42;;;;;;;11.37;10.20;;;20.00;98.40;;;;;;5061996;28;20487;-75
2022/05/20 03:05:52;;;;;;;12.73;10.57;;;19.90;98.70;;;;;;4966882;28;20881;-73
2022/05/20 03:08:19;;;;;;;12.90;11.60;;;19.90;98.90;;;;;;5041652;28;21217;-75
2022/05/20 03:10:47;;;;;;;11.00;9.90;;;19.90;98.90;;;;;;5060734;28;20535;-75
2022/05/20 03:13:15;;;;;;;11.40;9.23;;;19.90;98.90;;;;;;5050037;28;20558;-73
2022/05/20 03:15:44;;;;;;;28.70;10.20;;;19.90;98.50;;;;;;5049634;28;20980;-72
2022/05/20 03:18:13;;;;;;;13.17;9.50;;;19.90;98.40;;;;;;5041180;28;20484;-75
2022/05/20 03:20:42;;;;;;;16.10;9.80;;;19.90;98.30;;;;;;5036202;28;20479;-75
2022/05/20 03:23:10;;;;;;;14.30;9.13;;;19.90;98.30;;;;;;5053126;28;20479;-75
2022/05/20 03:25:37;;;;;;;13.97;10.33;;;19.80;98.20;;;;;;5059126;28;20884;-72
2022/05/20 03:28:05;;;;;;;228.53;18.00;;;19.80;98.20;;;;;;5059532;28;20806;-74
2022/05/20 03:30:33;;;;;;;213.00;16.23;;;19.50;98.70;;;;;;5055794;28;20891;-72
2022/05/20 03:33:00;;;;;;;22.43;10.20;;;19.30;99.00;;;;;;5058309;28;20479;-73
2022/05/20 03:35:28;;;;;;;24.67;9.20;;;19.10;99.40;;;;;;5057756;28;20493;-75
2022/05/20 03:37:54;;;;;;;109.67;13.97;;;19.00;99.10;;;;;;5033939;28;20513;-75
2022/05/20 03:40:21;;;;;;;73.33;11.77;;;18.90;99.30;;;;;;5055926;28;20485;-75
2022/05/20 03:42:48;;;;;;;120.43;15.10;;;18.80;99.40;;;;;;5057733;28;20505;-71
2022/05/20 03:45:15;;;;;;;48.70;10.53;;;18.60;99.70;;;;;;5059599;28;21015;-75
2022/05/20 03:47:42;;;;;;;245.17;18.37;;;;;;;;;;5061785;28;21192;-73
2022/05/20 03:50:11;;;;;;;232.40;18.90;;;18.30;99.90;;;;;;5060072;28;21007;-76
2022/05/20 03:52:38;;;;;;;208.00;18.10;;;18.20;99.90;;;;;;5058676;28;20517;-75
2022/05/20 03:55:07;;;;;;;220.13;18.50;;;18.00;99.90;;;;;;5058407;28;20489;-73
2022/05/20 03:57:34;;;;;;;38.13;10.63;;;18.00;99.90;;;;;;5059296;28;20474;-76
2022/05/20 04:00:01;;;;;;;201.30;16.53;;;17.90;99.90;;;;;;5060104;28;20479;-74
2022/05/20 04:02:27;;;;;;;78.10;13.10;;;17.90;99.90;;;;;;5057004;28;20481;-73
2022/05/20 04:04:55;;;;;;;64.83;14.93;;;18.00;99.90;;;;;;5045255;28;20494;-76
2022/05/20 04:07:25;;;;;;;40.60;12.83;;;18.10;99.90;;;;;;5055842;28;20263;-75
2022/05/20 04:09:53;;;;;;;97.13;17.30;;;18.10;99.90;;;;;;5058220;28;20488;-73
2022/05/20 04:12:25;;;;;;;53.80;12.97;;;18.10;99.90;;;;;;5061174;28;20654;-74
2022/05/20 04:14:52;;;;;;;20.33;13.70;;;18.10;99.90;;;;;;5057229;28;21044;-73
2022/05/20 04:17:19;;;;;;;20.90;12.00;;;18.00;99.90;;;;;;5057236;28;20488;-74
2022/05/20 04:19:46;;;;;;;35.63;11.90;;;17.90;99.90;;;;;;5059595;28;20889;-75
2022/05/20 04:22:15;;;;;;;21.43;12.60;;;17.90;99.90;;;;;;5060146;28;20488;-75
2022/05/20 04:24:43;;;;;;;39.83;12.93;;;17.90;99.90;;;;;;5060660;28;21006;-72
2022/05/20 04:27:09;;;;;;;86.73;15.37;;;17.90;99.90;;;;;;5058223;28;20486;-74
2022/05/20 04:29:36;;;;;;;23.37;12.87;;;17.90;99.90;;;;;;5059214;28;20986;-74
2022/05/20 04:32:04;;;;;;;64.03;16.10;;;18.00;99.90;;;;;;5058946;28;20967;-76
2022/05/20 04:34:31;;;;;;;62.70;12.57;;;;;;;;;;5044598;28;20498;-76
2022/05/20 04:36:58;;;;;;;78.00;14.77;;;17.90;99.90;;;;;;5057560;28;20484;-76
2022/05/20 04:39:25;;;;;;;80.43;14.20;;;17.90;99.90;;;;;;5060608;28;20582;-73
2022/05/20 04:47:25;;;;;;;31.50;11.87;;;18.20;99.90;;;;;;5061379;28;20483;-74
2022/05/20 04:49:52;;;;;;;52.13;15.13;;;18.30;99.90;;;;;;5062860;28;20478;-76
2022/05/20 04:52:22;;;;;;;34.17;11.20;;;18.40;99.90;;;;;;5063693;28;20485;-73
2022/05/20 04:54:52;;;;;;;25.07;12.37;;;;;;;;;;5062912;28;20479;-72
2022/05/20 04:57:23;;;;;;;21.00;13.00;;;17.90;99.90;;;;;;5059823;28;20483;-74
2022/05/20 04:59:51;;;;;;;30.00;12.97;;;18.80;99.90;;;;;;5063166;28;20493;-73
2022/05/20 05:02:18;;;;;;;27.87;11.60;;;18.90;99.90;;;;;;5064319;28;20482;-73
2022/05/20 05:04:45;;;;;;;21.17;11.73;;;;;;;;;;5052675;28;20486;-76
2022/05/20 05:07:11;;;;;;;33.07;12.77;;;19.10;99.90;;;;;;5056663;28;20517;-73
2022/05/20 05:09:38;;;;;;;35.43;11.33;;;19.20;99.90;;;;;;5047454;28;20487;-73
2022/05/20 05:12:06;;;;;;;18.53;13.70;;;19.20;99.90;;;;;;5071659;28;20506;-75
2022/05/20 05:14:38;;;;;;;39.13;11.40;;;19.30;99.90;;;;;;5063557;28;20479;-76
2022/05/20 05:17:06;;;;;;;32.87;12.87;;;19.40;99.90;;;;;;5047045;28;20826;-73
2022/05/20 05:19:36;;;;;;;54.33;11.97;;;19.50;99.90;;;;;;5051768;28;20475;-75
2022/05/20 05:22:03;;;;;;;53.87;12.53;;;19.50;99.90;;;;;;5060794;28;20498;-75
2022/05/20 05:24:30;;;;;;;35.60;12.20;;;19.60;99.90;;;;;;5061938;28;20478;-75
2022/05/20 05:26:57;;;;;;;36.73;12.90;;;19.70;99.90;;;;;;5059375;28;21006;-76
2022/05/20 05:29:23;;;;;;;21.70;12.10;;;19.70;99.90;;;;;;5060159;28;21114;-75
2022/05/20 05:31:52;;;;;;;18.53;14.00;;;19.80;99.90;;;;;;5062374;28;20530;-76
2022/05/20 05:34:19;;;;;;;13.27;10.70;;;20.00;99.90;;;;;;5052766;28;20489;-72
2022/05/20 05:36:46;;;;;;;16.67;10.23;;;20.00;99.90;;;;;;5063576;28;20493;-75
2022/05/20 05:39:13;;;;;;;10.60;9.70;;;20.10;99.90;;;;;;5059723;28;20494;-73
2022/05/20 05:41:40;;;;;;;11.00;9.90;;;20.20;99.90;;;;;;5058086;28;20875;-75
2022/05/20 05:44:07;;;;;;;11.47;10.37;;;20.30;99.90;;;;;;5062364;28;20474;-72
2022/05/20 05:46:34;;;;;;;16.83;10.23;;;20.40;99.90;;;;;;5058314;28;20841;-75
2022/05/20 05:49:03;;;;;;;13.10;11.77;;;20.50;99.90;;;;;;5060489;28;20573;-74
2022/05/20 05:51:30;;;;;;;10.83;9.93;;;20.60;99.90;;;;;;5063825;28;20566;-73
2022/05/20 05:53:57;;;;;;;13.40;10.83;;;20.70;99.90;;;;;;5062716;28;20587;-71
2022/05/20 05:56:24;;;;;;;25.43;11.67;;;20.80;99.90;;;;;;5059453;28;21034;-74
2022/05/20 05:58:51;;;;;;;14.53;12.30;;;20.90;99.90;;;;;;5059431;28;20506;-76
2022/05/20 06:01:18;;;;;;;11.50;10.50;;;21.00;99.90;;;;;;5057708;28;20580;-76
2022/05/20 06:03:45;;;;;;;28.83;12.20;;;21.30;99.90;;;;;;5062100;28;20489;-72
2022/05/20 06:06:13;;;;;;;12.87;11.63;;;21.30;99.90;;;;;;5045640;28;20561;-74
2022/05/20 06:08:41;;;;;;;12.33;11.17;;;21.40;99.90;;;;;;5057866;28;20487;-75
2022/05/20 06:11:08;;;;;;;14.67;11.83;;;21.60;99.90;;;;;;5059948;28;20475;-75
2022/05/20 06:13:35;;;;;;;11.23;10.23;;;21.70;99.90;;;;;;5062938;28;20478;-74
2022/05/20 06:16:02;;;;;;;13.73;12.43;;;21.80;99.90;;;;;;5055812;28;20500;-73
2022/05/20 06:18:29;;;;;;;13.90;10.57;;;21.90;99.90;;;;;;5048043;28;20475;-76
2022/05/20 06:20:56;;;;;;;16.47;14.80;;;22.00;99.90;;;;;;5061996;28;20503;-73
2022/05/20 06:23:25;;;;;;;13.40;12.00;;;22.10;99.90;;;;;;5061345;28;20487;-76
2022/05/20 06:25:52;;;;;;;20.90;14.63;;;22.30;99.90;;;;;;5057823;28;20941;-75
2022/05/20 06:28:20;;;;;;;13.30;11.93;;;22.40;99.90;;;;;;5062123;28;20558;-74
2022/05/20 06:30:48;;;;;;;19.00;13.47;;;22.50;99.90;;;;;;5060482;28;20797;-73
2022/05/20 06:33:15;;;;;;;16.70;11.43;;;22.70;99.90;;;;;;5061821;28;20482;-74
2022/05/20 06:41:28;;;;;;;16.40;12.40;;;23.30;99.90;;;;;;5015090;28;20670;-77
2022/05/20 06:43:55;;;;;;;16.70;13.00;;;23.40;99.50;;;;;;5039333;28;20489;-73
2022/05/20 06:46:22;;;;;;;12.40;11.10;;;23.60;99.40;;;;;;5052755;28;20971;-75
2022/05/20 06:48:51;;;;;;;11.17;10.00;;;23.90;99.20;;;;;;5057621;28;20518;-74
2022/05/20 06:51:21;;;;;;;12.37;10.87;;;24.00;98.80;;;;;;5059709;28;20475;-75
2022/05/20 06:53:52;;;;;;;14.03;12.57;;;24.20;98.10;;;;;;5059758;28;20491;-75
2022/05/20 06:56:20;;;;;;;19.13;11.10;;;24.50;98.00;;;;;;5055143;28;21259;-73
2022/05/20 06:58:47;;;;;;;12.90;10.40;;;24.70;97.40;;;;;;5061301;28;20809;-74
2022/05/20 07:01:15;;;;;;;12.77;10.57;;;24.70;97.90;;;;;;5050183;28;20487;-72
2022/05/20 07:03:43;;;;;;;19.27;9.67;;;24.90;97.10;;;;;;5060960;28;21154;-74
2022/05/20 07:06:12;;;;;;;10.77;9.83;;;25.10;97.40;;;;;;5056233;28;20494;-73
2022/05/20 07:08:40;;;;;;;10.40;9.43;;;25.40;97.80;;;;;;5050960;28;21184;-75
2022/05/20 07:11:08;;;;;;;17.47;10.03;;;25.60;96.70;;;;;;5059664;28;20550;-76
2022/05/20 07:13:35;;;;;;;10.83;9.83;;;25.70;96.40;;;;;;5061408;28;20475;-76
2022/05/20 07:16:04;;;;;;;11.83;10.67;;;25.80;94.70;;;;;;5058622;28;20555;-75
2022/05/20 07:18:34;;;;;;;14.20;10.80;;;25.90;95.40;;;;;;5050990;28;20491;-75
2022/05/20 07:21:01;;;;;;;13.20;11.70;;;26.00;95.10;;;;;;5048510;28;20818;-75
2022/05/20 07:23:29;;;;;;;13.83;8.07;;;26.10;94.30;;;;;;5054714;28;20490;-76
2022/05/20 07:25:56;;;;;;;14.00;11.40;;;26.30;94.20;;;;;;5050381;28;20494;-76
2022/05/20 07:28:25;;;;;;;9.07;8.23;;;26.40;93.80;;;;;;5027170;28;20771;-74
2022/05/20 07:30:52;;;;;;;11.43;10.20;;;26.60;92.80;;;;;;5040856;28;21202;-75
2022/05/20 07:33:19;;;;;;;9.43;8.37;;;26.50;92.50;;;;;;5033924;28;20521;-76
2022/05/20 07:35:46;;;;;;;15.07;9.17;;;26.40;93.20;;;;;;5034087;28;21002;-74
2022/05/20 07:38:13;;;;;;;7.50;5.80;;;26.30;90.30;;;;;;5040278;28;20478;-76
2022/05/20 07:40:42;;;;;;;26.17;8.40;;;26.00;86.60;;;;;;5042818;28;20485;-75
2022/05/20 07:43:09;;;;;;;12.57;6.60;;;25.90;89.70;;;;;;5037816;28;20486;-78
2022/05/20 07:45:37;;;;;;;26.87;5.50;;;25.70;86.20;;;;;;5044364;28;20449;-75
2022/05/20 07:48:05;;;;;;;12.23;7.17;;;25.70;85.40;;;;;;5032761;28;20487;-76
2022/05/20 07:50:39;;;;;;;7.13;5.23;;;25.60;82.40;;;;;;5045424;28;20471;-73
2022/05/20 07:53:21;;;;;;;31.20;8.97;;;25.50;85.60;;;;;;5042304;28;20479;-74
2022/05/20 07:55:53;;;;;;;9.60;4.93;;;25.50;83.50;;;;;;5033338;28;21912;-72
2022/05/20 07:58:24;;;;;;;22.50;5.20;;;25.60;82.40;;;;;;5034530;28;20530;-71
2022/05/20 08:00:54;;;;;;;10.50;5.63;;;25.60;81.90;;;;;;5030675;28;21140;-72
2022/05/20 08:06:03;;;;;;;10.27;4.60;;;25.80;85.20;;;;;;5043241;28;20506;-73
2022/05/20 08:08:30;;;;;;;14.90;5.17;;;25.80;80.70;;;;;;5048982;28;20487;-77
2022/05/20 08:10:57;;;;;;;15.90;4.70;;;26.00;82.20;;;;;;5040896;28;21092;-75
2022/05/20 08:13:25;;;;;;;11.80;5.10;;;25.90;79.60;;;;;;5042264;28;20959;-74
2022/05/20 08:15:53;;;;;;;6.23;4.17;;;;;;;;;;5041750;28;20891;-72
2022/05/20 08:18:20;;;;;;;10.50;4.07;;;25.90;80.60;;;;;;5041937;28;20475;-73
2022/05/20 08:20:47;;;;;;;6.07;5.47;;;25.70;78.30;;;;;;5028138;28;20461;-73
2022/05/20 08:23:14;;;;;;;8.57;6.17;;;;;;;;;;5043084;28;20490;-72
2022/05/20 08:25:41;;;;;;;8.20;4.80;;;25.90;79.30;;;;;;5038165;28;23248;-72
2022/05/20 08:28:08;;;;;;;17.10;6.03;;;25.90;78.70;;;;;;5038094;28;20947;-74
2022/05/20 08:30:36;;;;;;;11.10;3.90;;;;;;;;;;5040162;28;20493;-73
2022/05/20 08:33:06;;;;;;;5.97;4.57;;;26.30;84.80;;;;;;5041449;28;21827;-74
2022/05/20 08:35:32;;;;;;;13.27;4.93;;;26.50;84.90;;;;;;5036747;28;20787;-75
2022/05/20 08:37:59;;;;;;;9.60;5.80;;;26.80;83.30;;;;;;5034531;28;20454;-75
2022/05/20 08:40:29;;;;;;;8.13;4.87;;;26.60;78.70;;;;;;5044449;28;20479;-72
2022/05/20 08:42:59;;;;;;;8.50;4.97;;;26.60;76.20;;;;;;5031660;28;21042;-74
2022/05/20 08:45:30;;;;;;;7.60;5.03;;;26.60;78.10;;;;;;5058169;28;20490;-72
2022/05/20 08:47:57;;;;;;;10.93;5.60;;;26.80;79.50;;;;;;5038313;28;20841;-74
2022/05/20 08:50:33;;;;;;;14.83;5.33;;;27.00;81.30;;;;;;5035003;28;20983;-75
2022/05/20 08:53:00;;;;;;;13.23;4.77;;;27.20;79.00;;;;;;5042317;28;20471;-74
2022/05/20 08:55:28;;;;;;;6.50;5.00;;;27.20;76.80;;;;;;5044054;28;20939;-73
2022/05/20 08:57:59;;;;;;;8.20;4.73;;;27.40;78.50;;;;;;5038972;28;20551;-69
2022/05/20 09:00:28;;;;;;;11.60;5.20;;;27.60;82.80;;;;;;5038523;28;20475;-73
2022/05/20 09:02:55;;;;;;;10.50;5.03;;;27.50;78.10;;;;;;5044484;28;20471;-74
2022/05/20 09:05:25;;;;;;;8.40;4.83;;;27.80;77.40;;;;;;5043443;28;20672;-71
2022/05/20 09:08:02;;;;;;;10.63;5.70;;;27.70;76.80;;;;;;5032718;28;20470;-76
2022/05/20 09:10:39;;;;;;;12.00;5.00;;;27.80;79.90;;;;;;5039023;28;20513;-75
2022/05/20 09:13:08;;;;;;;16.83;5.10;;;27.60;75.00;;;;;;5044955;28;20479;-72
2022/05/20 09:15:43;;;;;;;9.37;4.77;;;27.70;76.70;;;;;;5043548;28;20486;-72
2022/05/20 09:18:13;;;;;;;8.37;4.57;;;27.70;76.50;;;;;;5041419;28;20471;-76
2022/05/20 09:20:44;;;;;;;16.10;6.50;;;27.80;79.00;;;;;;5046616;28;20464;-74
2022/05/20 09:23:15;;;;;;;9.83;5.50;;;28.00;78.70;;;;;;5043811;28;20475;-73
2022/05/20 09:25:49;;;;;;;8.87;4.33;;;28.20;79.00;;;;;;5041230;28;20795;-74
2022/05/20 09:28:26;;;;;;;12.27;5.10;;;28.40;79.80;;;;;;5041594;28;20479;-73
2022/05/20 09:31:03;;;;;;;11.43;5.10;;;28.40;77.10;;;;;;5031051;28;20532;-74
2022/05/20 09:33:32;;;;;;;12.90;5.53;;;28.50;78.80;;;;;;5045053;28;20474;-71
2022/05/20 09:36:01;;;;;;;17.57;6.23;;;28.20;74.20;;;;;;5037033;28;20483;-73
2022/05/20 09:38:35;;;;;;;7.50;4.43;;;28.00;75.50;;;;;;5046783;28;20490;-75
2022/05/20 09:41:12;;;;;;;8.10;4.97;;;27.80;78.00;;;;;;5040561;28;20479;-74
2022/05/20 09:43:43;;;;;;;6.80;4.03;;;27.70;79.30;;;;;;5042200;28;20804;-72
2022/05/20 09:46:28;;;;;;;17.20;5.43;;;27.50;77.40;;;;;;5040990;28;20450;-76
2022/05/20 09:49:03;;;;;;;8.17;4.87;;;27.30;76.90;;;;;;5038754;28;20597;-71
2022/05/20 09:51:37;;;;;;;16.23;5.23;;;27.10;78.30;;;;;;5047195;28;20937;-74
2022/05/20 09:54:17;;;;;;;11.70;5.07;;;27.00;76.90;;;;;;5045854;28;20462;-74
2022/05/20 09:56:46;;;;;;;9.57;4.63;;;26.70;76.30;;;;;;5040227;28;20548;-71
2022/05/20 09:59:22;;;;;;;13.40;4.53;;;26.60;76.30;;;;;;5047305;28;20997;-74
2022/05/20 10:01:57;;;;;;;14.83;4.70;;;26.60;78.30;;;;;;5042765;28;20482;-74
2022/05/20 10:04:32;;;;;;;9.37;4.87;;;26.60;78.10;;;;;;5044541;28;20472;-73
2022/05/20 10:07:02;;;;;;;9.93;5.13;;;26.60;77.70;;;;;;5028823;28;20853;-73
2022/05/20 10:09:37;;;;;;;21.83;4.73;;;26.50;76.60;;;;;;5046128;28;20489;-71
2022/05/20 10:12:11;;;;;;;6.90;5.00;;;26.50;76.00;;;;;;5049458;28;20589;-76
2022/05/20 10:14:48;;;;;;;6.03;4.40;;;26.50;77.00;;;;;;5041867;28;20499;-74
2022/05/20 10:17:28;;;;;;;5.43;4.17;;;26.50;78.00;;;;;;5044770;28;20484;-73
2022/05/20 10:20:03;;;;;;;8.53;4.47;;;26.50;77.80;;;;;;5031144;28;20483;-75
2022/05/20 10:22:41;;;;;;;7.07;4.03;;;26.70;78.70;;;;;;5037394;28;21275;-70
2022/05/20 10:25:17;;;;;;;16.90;6.17;;;26.50;78.40;;;;;;5043402;28;21122;-70
2022/05/20 10:27:50;;;;;;;9.40;5.30;;;26.70;79.10;;;;;;5045420;28;20943;-73
2022/05/20 10:33:06;;;;;;;10.50;5.30;;;27.20;77.40;;;;;;5045953;28;20524;-74
2022/05/20 10:35:49;;;;;;;8.47;4.80;;;27.30;75.10;;;;;;5044539;28;20636;-73
2022/05/20 10:38:28;;;;;;;7.30;5.07;;;27.50;78.00;;;;;;5043152;28;20473;-72
2022/05/20 10:41:00;;;;;;;20.70;5.63;;;27.60;75.50;;;;;;5041461;28;20482;-72
2022/05/20 10:49:23;;;;;;;13.33;4.40;;;27.90;76.00;;;;;;5043191;28;20469;-72
2022/05/20 10:52:08;;;;;;;15.67;5.10;;;28.00;76.20;;;;;;5042491;28;21766;-72
2022/05/20 10:54:52;;;;;;;8.70;5.80;;;28.20;77.20;;;;;;5035090;28;20984;-71
2022/05/20 10:57:46;;;;;;;4.80;4.10;;;28.30;79.80;;;;;;5046931;28;20486;-71
2022/05/20 11:00:18;;;;;;;8.03;5.10;;;28.40;75.00;;;;;;5034045;28;20590;-71
2022/05/20 11:03:12;;;;;;;11.47;5.30;;;28.50;75.40;;;;;;5036278;28;20806;-73
2022/05/20 11:06:04;;;;;;;12.37;4.67;;;28.50;74.00;;;;;;5040323;28;20483;-76
2022/05/20 11:08:43;;;;;;;8.80;4.93;;;28.80;75.30;;;;;;5042799;28;20471;-73
2022/05/20 11:11:23;;;;;;;8.73;4.30;;;28.80;75.80;;;;;;5037160;28;20490;-72
2022/05/20 11:14:12;;;;;;;12.90;4.93;;;28.70;73.10;;;;;;5036477;28;20906;-72
2022/05/20 11:17:01;;;;;;;14.20;4.83;;;28.70;73.30;;;;;;5025667;28;20474;-72
2022/05/20 11:20:06;;;;;;;9.57;5.37;;;28.90;73.70;;;;;;5040645;28;20483;-77
2022/05/20 11:23:10;;;;;;;11.87;5.20;;;28.80;72.40;;;;;;4978900;28;20454;-74
2022/05/20 11:25:58;;;;;;;9.57;4.50;;;28.80;72.90;;;;;;5013381;28;20459;-74
2022/05/20 11:28:49;;;;;;;10.10;5.03;;;29.10;72.70;;;;;;5044385;28;20475;-75
2022/05/20 11:31:34;;;;;;;11.60;4.73;;;29.30;77.80;;;;;;5047856;28;20597;-72
2022/05/20 11:34:17;;;;;;;6.83;5.10;;;29.50;75.60;;;;;;5033198;28;20446;-75
2022/05/20 11:37:02;;;;;;;16.73;5.17;;;29.70;72.90;;;;;;5045597;28;21247;-70
2022/05/20 11:39:52;;;;;;;10.23;5.00;;;29.60;71.60;;;;;;5045310;28;20446;-72
2022/05/20 11:42:30;;;;;;;8.10;5.17;;;29.70;72.10;;;;;;5047526;28;20467;-75
2022/05/20 11:45:11;;;;;;;30.07;6.20;;;29.90;74.80;;;;;;5045211;28;20547;-72
2022/05/20 11:48:13;;;;;;;6.33;4.50;;;30.00;72.30;;;;;;5041793;28;20471;-72
2022/05/20 11:51:09;;;;;;;14.57;5.10;;;30.20;73.20;;;;;;5028090;28;21448;-74
2022/05/20 11:53:43;;;;;;;14.80;5.37;;;30.20;72.30;;;;;;5039600;28;20849;-73
2022/05/20 11:56:19;;;;;;;8.73;4.23;;;30.40;69.90;;;;;;5043342;28;20481;-71
2022/05/20 11:58:53;;;;;;;16.83;4.77;;;30.50;70.10;;;;;;5044721;28;20461;-74
2022/05/20 12:01:20;;;;;;;9.53;4.53;;;30.50;69.70;;;;;;5040942;28;21791;-73
2022/05/20 12:04:08;;;;;;;6.40;4.97;;;30.10;65.20;;;;;;5040432;28;21043;-72
2022/05/20 12:06:40;;;;;;;5.50;4.50;;;30.10;68.90;;;;;;5042891;28;20449;-71
2022/05/20 12:09:28;;;;;;;9.07;3.70;;;30.00;67.40;;;;;;5055420;28;20479;-76
2022/05/20 12:12:24;;;;;;;11.20;4.13;;;30.00;64.40;;;;;;5037549;28;20931;-70
2022/05/20 12:15:42;;;;;;;7.80;4.40;;;29.80;63.90;;;;;;5041578;28;20473;-74
2022/05/20 12:24:29;;;;;;;6.77;3.97;;;30.00;67.10;;;;;;5024037;28;20515;-75
2022/05/20 12:26:57;;;;;;;15.20;4.67;;;30.00;67.60;;;;;;5017702;28;20516;-73
2022/05/20 12:29:45;;;;;;;5.33;4.13;;;30.10;67.50;;;;;;5020166;28;20604;-71
2022/05/20 12:32:41;;;;;;;26.53;6.00;;;30.00;66.50;;;;;;5010072;28;20713;-71
2022/05/20 12:35:13;;;;;;;10.87;4.80;;;30.10;68.20;;;;;;5023322;28;20496;-71
2022/05/20 12:38:23;;;;;;;10.37;4.23;;;30.40;67.70;;;;;;5015410;28;20451;-73
2022/05/20 12:41:02;;;;;;;4.40;3.67;;;30.40;68.70;;;;;;5022040;28;20566;-72
2022/05/20 12:43:46;;;;;;;6.87;4.57;;;30.30;63.60;;;;;;5025607;28;20482;-76
2022/05/20 12:46:23;;;;;;;7.87;4.73;;;30.30;63.60;;;;;;5029204;28;20454;-74
2022/05/20 12:48:52;;;;;;;8.90;3.70;;;30.40;64.40;;;;;;5023043;28;21116;-75
2022/05/20 12:51:18;;;;;;;18.70;4.83;;;30.80;67.60;;;;;;5018510;28;20567;-76
2022/05/20 12:53:45;;;;;;;12.63;4.93;;;30.80;63.60;;;;;;5019506;28;20458;-73
2022/05/20 12:56:29;;;;;;;7.03;4.00;;;31.00;65.00;;;;;;5017091;28;20459;-72
2022/05/20 12:59:16;;;;;;;8.93;4.30;;;31.10;66.90;;;;;;5018230;28;20894;-74
2022/05/20 13:01:53;;;;;;;13.03;4.53;;;31.10;63.80;;;;;;5009249;28;20985;-75
2022/05/20 13:04:22;;;;;;;8.13;3.67;;;31.00;65.20;;;;;;5024689;28;20487;-73
2022/05/20 13:06:50;;;;;;;8.53;4.83;;;30.80;65.40;;;;;;5024771;28;20803;-74
2022/05/20 13:09:23;;;;;;;14.70;4.27;;;30.50;67.60;;;;;;5031471;28;21074;-74
2022/05/20 13:11:52;;;;;;;10.80;3.97;;;30.40;67.10;;;;;;5019680;28;20491;-73
2022/05/20 13:14:22;;;;;;;11.93;4.30;;;30.00;66.90;;;;;;5019636;28;21406;-69
2022/05/20 13:16:50;;;;;;;6.80;4.10;;;29.80;66.60;;;;;;5019068;28;20459;-69
2022/05/20 13:19:26;;;;;;;9.30;4.20;;;29.40;66.60;;;;;;5023314;28;20654;-71
2022/05/20 13:22:00;;;;;;;6.47;5.10;;;29.10;70.60;;;;;;5024823;28;20565;-74
2022/05/20 13:24:29;;;;;;;11.70;4.80;;;28.80;71.10;;;;;;5024243;28;20468;-69
2022/05/20 13:27:07;;;;;;;20.50;5.23;;;28.40;70.10;;;;;;5023455;28;20999;-73
2022/05/20 13:29:34;;;;;;;9.20;4.43;;;28.10;71.70;;;;;;5027727;28;20498;-72
2022/05/20 13:32:19;;;;;;;7.10;4.30;;;27.70;73.60;;;;;;5025865;28;20477;-71
2022/05/20 13:34:49;;;;;;;7.73;4.20;;;27.40;75.90;;;;;;5013696;28;20564;-71
2022/05/20 13:37:21;;;;;;;5.33;4.70;;;27.00;78.20;;;;;;5023820;28;20916;-69